createdAt,value
2018-02-20T00:02:17.158Z,77.27
2018-02-20T00:04:45.071Z,82.47
2018-02-20T00:07:12.914Z,69.53
2018-02-20T00:09:41.567Z,69.53
2018-02-20T00:12:09.340Z,76.73
2018-02-20T00:14:37.310Z,70.20
2018-02-20T00:17:05.249Z,73.30
2018-02-20T00:19:32.998Z,74.20
2018-02-20T00:22:01.835Z,74.77
2018-02-20T00:24:29.815Z,70.70
2018-02-20T00:26:58.431Z,70.70
2018-02-20T00:29:26.321Z,77.30
2018-02-20T00:31:54.108Z,77.00
2018-02-20T00:34:22.053Z,70.90
2018-02-20T00:36:49.839Z,82.73
2018-02-20T00:39:17.706Z,62.40
2018-02-20T00:41:45.568Z,72.87
2018-02-20T00:44:14.339Z,66.97
2018-02-20T00:46:42.082Z,71.90
2018-02-20T00:49:10.075Z,72.37
2018-02-20T00:51:37.897Z,76.67
2018-02-20T00:54:05.659Z,69.17
2018-02-20T00:56:34.205Z,68.63
2018-02-20T00:59:02.171Z,66.37
2018-02-20T01:01:30.053Z,66.60
2018-02-20T01:03:57.898Z,71.57
2018-02-20T01:06:25.765Z,70.20
2018-02-20T01:08:53.595Z,70.60
2018-02-20T01:11:21.389Z,74.97
2018-02-20T01:13:49.246Z,68.37
2018-02-20T01:16:17.040Z,72.30
2018-02-20T01:18:44.999Z,72.37
2018-02-20T01:21:12.879Z,68.53
2018-02-20T01:23:40.730Z,79.07
2018-02-20T01:26:09.458Z,77.37
2018-02-20T01:28:38.011Z,76.70
2018-02-20T01:31:07.076Z,73.50
2018-02-20T01:33:34.956Z,65.93
2018-02-20T01:36:02.708Z,71.80
2018-02-20T01:38:30.647Z,70.97
2018-02-20T01:40:58.457Z,69.07
2018-02-20T01:43:27.141Z,72.80
2018-02-20T01:45:56.135Z,65.77
2018-02-20T01:48:24.500Z,67.17
2018-02-20T01:51:04.308Z,72.53
2018-02-20T01:53:32.332Z,72.07
2018-02-20T01:56:00.232Z,77.20
2018-02-20T01:58:29.053Z,64.30
2018-02-20T02:00:56.936Z,77.73
2018-02-20T02:03:24.818Z,73.13
2018-02-20T02:05:52.611Z,67.30
2018-02-20T02:08:21.371Z,83.00
2018-02-20T02:10:49.317Z,84.00
2018-02-20T02:13:17.226Z,73.60
2018-02-20T02:15:45.038Z,76.20
2018-02-20T02:18:13.043Z,88.40
2018-02-20T02:20:40.853Z,85.53
2018-02-20T02:23:08.681Z,76.17
2018-02-20T02:25:36.456Z,81.50
2018-02-20T02:28:05.977Z,90.13
2018-02-20T02:30:34.627Z,77.20
2018-02-20T02:33:03.311Z,80.77
2018-02-20T02:35:31.248Z,85.17
2018-02-20T02:37:59.617Z,82.67
2018-02-20T02:40:27.516Z,95.57
2018-02-20T02:42:55.396Z,80.43
2018-02-20T02:45:25.623Z,88.67
2018-02-20T02:47:54.360Z,82.13
2018-02-20T02:50:22.097Z,92.97
2018-02-20T02:52:50.831Z,93.67
2018-02-20T02:55:19.010Z,93.00
2018-02-20T02:57:46.786Z,85.07
2018-02-20T03:00:14.702Z,88.30
2018-02-20T03:02:42.911Z,97.80
2018-02-20T03:05:10.676Z,97.50
2018-02-20T03:07:38.472Z,91.17
2018-02-20T03:10:06.428Z,90.17
2018-02-20T03:12:34.295Z,82.33
2018-02-20T03:15:02.159Z,88.63
2018-02-20T03:17:30.377Z,83.60
2018-02-20T03:19:58.999Z,77.53
2018-02-20T03:22:26.786Z,90.87
2018-02-20T03:24:54.651Z,82.00
2018-02-20T03:27:22.402Z,88.30
2018-02-20T03:29:50.179Z,97.70
2018-02-20T03:32:18.760Z,98.07
2018-02-20T03:34:46.729Z,97.10
2018-02-20T03:37:14.796Z,100.60
2018-02-20T03:39:42.659Z,98.00
2018-02-20T03:42:10.398Z,107.33
2018-02-20T03:44:38.200Z,97.20
2018-02-20T03:47:06.055Z,93.50
2018-02-20T03:49:33.909Z,100.27
2018-02-20T03:52:01.828Z,103.83
2018-02-20T03:54:29.965Z,96.57
2018-02-20T03:56:57.827Z,100.63
2018-02-20T03:59:25.597Z,104.20
2018-02-20T04:01:53.750Z,101.27
2018-02-20T04:04:21.547Z,101.63
2018-02-20T04:06:49.299Z,99.23
2018-02-20T04:09:17.145Z,109.50
2018-02-20T04:11:45.014Z,100.17
2018-02-20T04:14:12.996Z,106.37
2018-02-20T04:16:42.395Z,98.43
2018-02-20T04:19:10.248Z,106.03
2018-02-20T04:21:38.803Z,98.10
2018-02-20T04:24:06.696Z,99.93
2018-02-20T04:26:34.476Z,117.23
2018-02-20T04:29:02.348Z,116.83
2018-02-20T04:31:30.502Z,121.27
2018-02-20T04:33:58.574Z,112.00
2018-02-20T04:36:26.463Z,119.10
2018-02-20T04:38:54.410Z,108.17
2018-02-20T04:41:22.368Z,111.80
2018-02-20T04:43:50.140Z,116.77
2018-02-20T04:46:18.005Z,117.83
2018-02-20T04:48:46.094Z,115.73
2018-02-20T04:51:13.864Z,119.20
2018-02-20T04:53:42.244Z,118.23
2018-02-20T04:56:10.122Z,128.23
2018-02-20T04:58:37.978Z,108.53
2018-02-20T05:01:05.739Z,124.57
2018-02-20T05:03:33.815Z,135.43
2018-02-20T05:06:02.897Z,121.23
2018-02-20T05:08:30.963Z,117.40
2018-02-20T05:10:58.830Z,125.47
2018-02-20T05:13:27.431Z,121.40
2018-02-20T05:15:55.200Z,122.70
2018-02-20T05:18:23.057Z,114.40
2018-02-20T05:20:50.823Z,127.80
2018-02-20T05:23:18.867Z,114.97
2018-02-20T05:25:46.756Z,114.90
2018-02-20T05:28:14.509Z,122.43
2018-02-20T05:30:42.354Z,121.30
2018-02-20T05:33:10.151Z,127.93
2018-02-20T05:35:38.309Z,118.90
2018-02-20T05:38:06.273Z,113.40
2018-02-20T05:40:34.055Z,112.03
2018-02-20T05:43:02.039Z,125.70
2018-02-20T05:45:29.813Z,136.73
2018-02-20T05:47:58.372Z,129.20
2018-02-20T05:50:26.288Z,136.07
2018-02-20T05:52:55.110Z,130.23
2018-02-20T05:55:22.896Z,137.50
2018-02-20T05:57:51.675Z,125.07
2018-02-20T06:00:19.543Z,136.80
2018-02-20T06:02:47.528Z,144.00
2018-02-20T06:05:15.589Z,134.87
2018-02-20T06:07:43.353Z,131.60
2018-02-20T06:10:11.421Z,135.13
2018-02-20T06:12:39.371Z,153.33
2018-02-20T06:15:07.342Z,124.57
2018-02-20T06:17:35.128Z,123.87
2018-02-20T06:20:03.077Z,136.53
2018-02-20T06:22:31.557Z,126.70
2018-02-20T06:24:59.337Z,142.40
2018-02-20T06:27:27.287Z,141.63
2018-02-20T06:29:55.153Z,143.40
2018-02-20T06:32:29.604Z,139.00
2018-02-20T06:34:57.476Z,129.10
2018-02-20T06:37:25.924Z,145.73
2018-02-20T06:39:53.680Z,145.87
2018-02-20T06:42:21.476Z,136.90
2018-02-20T06:44:49.284Z,149.57
2018-02-20T06:47:17.691Z,148.00
2018-02-20T06:49:45.579Z,142.33
2018-02-20T06:52:13.334Z,135.73
2018-02-20T06:54:41.140Z,140.07
2018-02-20T06:57:09.688Z,135.67
2018-02-20T06:59:37.459Z,126.93
2018-02-20T07:02:05.422Z,161.00
2018-02-20T07:04:33.160Z,140.00
2018-02-20T07:07:01.033Z,119.63
2018-02-20T07:09:28.796Z,140.93
2018-02-20T07:11:56.586Z,141.37
2018-02-20T07:14:24.430Z,132.53
2018-02-20T07:16:52.164Z,140.40
2018-02-20T07:19:20.087Z,135.60
2018-02-20T07:21:47.994Z,136.20
2018-02-20T07:24:15.823Z,201.27
2018-02-20T07:26:43.581Z,168.23
2018-02-20T07:29:12.444Z,133.30
2018-02-20T07:31:40.697Z,151.43
2018-02-20T07:34:08.612Z,148.57
2018-02-20T07:36:36.453Z,143.10
2018-02-20T07:39:05.138Z,136.10
2018-02-20T07:41:32.923Z,148.87
2018-02-20T07:44:00.886Z,135.70
2018-02-20T07:46:28.839Z,154.50
2018-02-20T07:48:56.910Z,149.70
2018-02-20T07:51:24.699Z,140.00
2018-02-20T07:53:52.559Z,133.90
2018-02-20T07:56:20.330Z,124.13
2018-02-20T07:58:48.189Z,130.40
2018-02-20T08:01:16.039Z,123.50
2018-02-20T08:03:44.843Z,137.60
2018-02-20T08:06:12.584Z,136.47
2018-02-20T08:08:40.326Z,144.60
2018-02-20T08:11:08.114Z,135.40
2018-02-20T08:13:36.675Z,136.43
2018-02-20T08:16:04.494Z,118.10
2018-02-20T08:18:33.788Z,138.50
2018-02-20T08:21:02.486Z,124.47
2018-02-20T08:23:31.873Z,128.93
2018-02-20T08:25:59.763Z,139.40
2018-02-20T08:28:28.254Z,133.57
2018-02-20T08:30:56.811Z,144.50
2018-02-20T08:33:24.668Z,131.30
2018-02-20T08:35:52.432Z,134.20
2018-02-20T08:38:20.295Z,125.77
2018-02-20T08:40:48.073Z,128.57
2018-02-20T08:43:16.012Z,130.23
2018-02-20T08:45:44.634Z,133.60
2018-02-20T08:48:12.548Z,124.53
2018-02-20T08:50:41.568Z,126.13
2018-02-20T08:53:09.420Z,130.03
2018-02-20T08:55:37.323Z,148.83
2018-02-20T08:58:05.066Z,127.57
2018-02-20T09:00:32.827Z,130.10
2018-02-20T09:03:00.642Z,134.33
2018-02-20T09:05:29.163Z,124.83
2018-02-20T09:07:56.949Z,146.80
2018-02-20T09:10:24.822Z,133.13
2018-02-20T09:12:52.927Z,134.90
2018-02-20T09:15:21.462Z,133.33
2018-02-20T09:17:49.259Z,136.47
2018-02-20T09:20:18.742Z,123.07
2018-02-20T09:22:46.814Z,125.80
2018-02-20T09:25:14.655Z,122.43
2018-02-20T09:27:43.034Z,129.67
2018-02-20T09:30:10.914Z,133.70
2018-02-20T09:32:39.634Z,125.27
2018-02-20T09:35:08.197Z,132.77
2018-02-20T09:37:36.065Z,124.50
2018-02-20T09:40:04.099Z,136.53
2018-02-20T09:42:32.588Z,125.50
2018-02-20T09:45:00.431Z,129.60
2018-02-20T09:47:28.296Z,128.13
2018-02-20T09:49:56.283Z,119.70
2018-02-20T09:52:24.176Z,127.50
2018-02-20T09:54:53.662Z,136.10
2018-02-20T09:57:21.545Z,120.33
2018-02-20T09:59:49.381Z,115.53
2018-02-20T10:02:17.360Z,125.63
2018-02-20T10:04:45.102Z,115.47
2018-02-20T10:07:12.858Z,119.47
2018-02-20T10:09:40.752Z,115.97
2018-02-20T10:12:08.631Z,105.17
2018-02-20T10:14:36.400Z,120.30
2018-02-20T10:17:04.180Z,134.27
2018-02-20T10:19:32.119Z,132.70
2018-02-20T10:22:00.043Z,119.50
2018-02-20T10:24:28.056Z,128.13
2018-02-20T10:26:55.841Z,119.93
2018-02-20T10:29:23.604Z,109.23
2018-02-20T10:31:51.383Z,100.87
2018-02-20T10:34:19.139Z,116.53
2018-02-20T10:36:47.004Z,97.90
2018-02-20T10:39:14.863Z,97.50
2018-02-20T10:41:42.741Z,89.87
2018-02-20T10:44:10.598Z,101.67
2018-02-20T10:46:38.466Z,98.20
2018-02-20T10:49:06.312Z,98.90
2018-02-20T10:51:34.204Z,91.43
2018-02-20T10:54:02.275Z,89.17
2018-02-20T10:56:30.051Z,92.27
2018-02-20T10:58:58.616Z,95.33
2018-02-20T11:01:26.398Z,119.23
2018-02-20T11:03:54.959Z,97.53
2018-02-20T11:06:22.928Z,93.53
2018-02-20T11:08:50.776Z,98.57
2018-02-20T11:11:18.533Z,96.43
2018-02-20T11:13:46.282Z,102.60
2018-02-20T11:16:14.128Z,91.40
2018-02-20T11:18:42.696Z,98.90
2018-02-20T11:21:12.159Z,95.50
2018-02-20T11:23:40.037Z,93.80
2018-02-20T11:26:07.934Z,88.47
2018-02-20T11:28:36.603Z,84.97
2018-02-20T11:31:04.459Z,94.33
2018-02-20T11:33:32.336Z,81.63
2018-02-20T11:36:00.260Z,93.27
2018-02-20T11:38:28.064Z,92.97
2018-02-20T11:40:56.419Z,81.80
2018-02-20T11:43:24.203Z,85.43
2018-02-20T11:45:52.049Z,80.00
2018-02-20T11:48:19.835Z,88.10
2018-02-20T11:50:47.679Z,91.37
2018-02-20T11:53:15.576Z,76.60
2018-02-20T11:55:43.409Z,88.27
2018-02-20T11:58:11.402Z,95.77
2018-02-20T12:00:39.172Z,86.70
2018-02-20T12:03:07.035Z,88.00
2018-02-20T12:05:34.980Z,90.00
2018-02-20T12:08:02.751Z,90.27
2018-02-20T12:10:30.647Z,79.90
2018-02-20T12:12:58.507Z,72.57
2018-02-20T12:15:28.176Z,73.90
2018-02-20T12:17:56.075Z,90.33
2018-02-20T12:20:24.051Z,81.50
2018-02-20T12:22:52.677Z,78.23
2018-02-20T12:25:20.584Z,91.10
2018-02-20T12:27:48.967Z,82.50
2018-02-20T12:30:16.842Z,75.50
2018-02-20T12:32:44.788Z,72.60
2018-02-20T12:35:12.565Z,74.83
2018-02-20T12:37:40.316Z,71.10
2018-02-20T12:40:08.113Z,77.37
2018-02-20T12:42:36.050Z,75.80
2018-02-20T12:45:03.834Z,81.20
2018-02-20T12:47:31.675Z,73.50
2018-02-20T12:50:00.082Z,73.03
2018-02-20T12:52:27.941Z,77.03
2018-02-20T12:54:55.809Z,76.53
2018-02-20T12:57:23.779Z,79.93
2018-02-20T12:59:52.137Z,73.20
2018-02-20T13:02:20.085Z,75.47
2018-02-20T13:04:47.900Z,73.03
2018-02-20T13:07:15.884Z,74.37
2018-02-20T13:09:43.803Z,67.70
2018-02-20T13:12:11.676Z,79.00
2018-02-20T13:14:40.103Z,76.10
2018-02-20T13:17:08.753Z,75.27
2018-02-20T13:19:36.834Z,71.37
2018-02-20T13:22:05.606Z,81.50
2018-02-20T13:24:33.772Z,63.87
2018-02-20T13:27:03.039Z,79.17
2018-02-20T13:29:31.824Z,74.97
2018-02-20T13:31:59.897Z,95.93
2018-02-20T13:34:29.561Z,82.13
2018-02-20T13:36:57.594Z,81.33
2018-02-20T13:39:30.241Z,92.77
2018-02-20T13:42:00.306Z,69.23
2018-02-20T13:44:29.766Z,70.43
2018-02-20T13:46:59.532Z,84.67
2018-02-20T13:49:28.339Z,83.17
2018-02-20T13:51:57.196Z,83.87
2018-02-20T13:54:26.711Z,87.33
2018-02-20T13:56:55.017Z,77.77
2018-02-20T13:59:23.693Z,96.37
2018-02-20T14:01:51.488Z,82.33
2018-02-20T14:04:19.267Z,82.07
2018-02-20T14:06:47.077Z,81.63
2018-02-20T14:09:14.954Z,88.47
2018-02-20T14:11:42.746Z,90.47
2018-02-20T14:14:11.397Z,94.73
2018-02-20T14:16:39.275Z,85.43
2018-02-20T14:19:07.260Z,79.33
2018-02-20T14:21:35.912Z,84.47
2018-02-20T14:24:03.685Z,76.80
2018-02-20T14:26:33.403Z,73.90
2018-02-20T14:29:02.158Z,72.77
2018-02-20T14:31:30.942Z,72.77
2018-02-20T14:33:58.805Z,79.33
2018-02-20T14:36:26.578Z,65.27
2018-02-20T14:38:54.436Z,77.80
2018-02-20T14:41:23.331Z,69.67
2018-02-20T14:43:51.197Z,88.97
2018-02-20T14:46:19.065Z,71.83
2018-02-20T14:48:46.845Z,62.37
2018-02-20T14:51:14.625Z,76.97
2018-02-20T14:53:42.771Z,64.10
2018-02-20T14:56:10.648Z,76.83
2018-02-20T14:58:38.603Z,61.13
2018-02-20T15:01:06.484Z,60.90
2018-02-20T15:03:34.565Z,73.20
2018-02-20T15:06:02.611Z,76.00
2018-02-20T15:08:30.406Z,69.10
2018-02-20T15:10:58.260Z,72.43
2018-02-20T15:13:26.206Z,71.10
2018-02-20T15:15:54.421Z,81.57
2018-02-20T15:18:23.271Z,72.73
2018-02-20T15:20:51.239Z,75.47
2018-02-20T15:23:19.513Z,74.33
2018-02-20T15:25:47.407Z,72.87
2018-02-20T15:28:15.269Z,68.87
2018-02-20T15:30:43.114Z,72.53
2018-02-20T15:33:10.946Z,71.43
2018-02-20T15:35:38.849Z,70.90
2018-02-20T15:38:07.156Z,72.60
2018-02-20T15:40:35.021Z,63.30
2018-02-20T15:43:03.081Z,68.27
2018-02-20T15:45:31.037Z,63.50
2018-02-20T15:47:59.235Z,69.97
2018-02-20T15:50:27.098Z,68.17
2018-02-20T15:52:54.985Z,63.57
2018-02-20T15:55:23.724Z,69.33
2018-02-20T15:57:51.696Z,68.57
2018-02-20T16:00:19.576Z,68.70
2018-02-20T16:02:47.631Z,76.33
2018-02-20T16:05:15.392Z,72.17
2018-02-20T16:07:43.493Z,72.20
2018-02-20T16:10:11.300Z,68.33
2018-02-20T16:12:39.107Z,65.37
2018-02-20T16:15:07.993Z,69.67
2018-02-20T16:17:36.031Z,64.87
2018-02-20T16:20:04.025Z,62.57
2018-02-20T16:22:31.817Z,68.23
2018-02-20T16:24:59.964Z,68.03
2018-02-20T16:27:27.872Z,68.57
2018-02-20T16:29:56.440Z,56.97
2018-02-20T16:32:26.481Z,64.83
2018-02-20T16:34:54.620Z,57.77
2018-02-20T16:37:23.604Z,55.90
2018-02-20T16:39:51.684Z,54.43
2018-02-20T16:42:19.901Z,57.53
2018-02-20T16:44:47.966Z,58.07
2018-02-20T16:47:16.720Z,54.97
2018-02-20T16:49:44.654Z,57.93
2018-02-20T16:52:12.559Z,53.80
2018-02-20T16:54:40.617Z,53.87
2018-02-20T16:57:08.677Z,55.20
2018-02-20T16:59:37.782Z,59.37
2018-02-20T17:02:06.799Z,59.07
2018-02-20T17:04:34.745Z,55.47
2018-02-20T17:07:02.609Z,51.37
2018-02-20T17:09:31.625Z,56.50
2018-02-20T17:11:59.823Z,49.17
2018-02-20T17:14:27.882Z,51.70
2018-02-20T17:16:56.519Z,56.33
2018-02-20T17:19:24.389Z,61.27
2018-02-20T17:21:53.075Z,65.00
2018-02-20T17:24:20.876Z,69.60
2018-02-20T17:26:49.012Z,62.50
2018-02-20T17:29:17.186Z,67.27
2018-02-20T17:31:45.049Z,60.47
2018-02-20T17:34:12.997Z,62.83
2018-02-20T17:36:41.500Z,63.57
2018-02-20T17:39:09.266Z,64.93
2018-02-20T17:41:37.046Z,55.90
2018-02-20T17:44:05.102Z,61.37
2018-02-20T17:46:33.360Z,60.90
2018-02-20T17:49:01.469Z,68.80
2018-02-20T17:51:29.666Z,62.33
2018-02-20T17:53:59.578Z,61.27
2018-02-20T17:56:28.667Z,67.13
2018-02-20T17:58:57.313Z,70.63
2018-02-20T18:01:25.290Z,66.37
2018-02-20T18:03:53.766Z,71.37
2018-02-20T18:06:21.782Z,69.33
2018-02-20T18:08:50.441Z,53.27
2018-02-20T18:11:18.329Z,72.43
2018-02-20T18:13:46.979Z,75.03
2018-02-20T18:16:14.868Z,67.70
2018-02-20T18:18:42.641Z,73.23
2018-02-20T18:21:11.213Z,65.90
2018-02-20T18:23:40.908Z,70.67
2018-02-20T18:26:09.608Z,65.77
2018-02-20T18:28:39.031Z,69.33
2018-02-20T18:31:07.660Z,67.70
2018-02-20T18:33:36.319Z,66.70
2018-02-20T18:36:05.741Z,68.07
2018-02-20T18:38:33.650Z,69.00
2018-02-20T18:41:02.532Z,69.63
2018-02-20T18:43:31.562Z,71.60
2018-02-20T18:45:59.500Z,69.03
2018-02-20T18:48:29.906Z,59.87
2018-02-20T18:50:57.971Z,67.70
2018-02-20T18:53:26.046Z,66.50
2018-02-20T18:55:54.046Z,67.33
2018-02-20T18:58:22.655Z,73.70
2018-02-20T19:00:50.996Z,60.40
2018-02-20T19:03:18.966Z,67.27
2018-02-20T19:05:47.230Z,67.57
2018-02-20T19:08:15.211Z,59.73
2018-02-20T19:10:42.992Z,64.20
2018-02-20T19:13:11.642Z,62.43
2018-02-20T19:15:39.708Z,59.03
2018-02-20T19:18:07.776Z,56.60
2018-02-20T19:20:35.647Z,63.57
2018-02-20T19:23:03.630Z,55.87
2018-02-20T19:25:32.043Z,68.83
2018-02-20T19:28:00.205Z,68.00
2018-02-20T19:30:29.783Z,61.40
2018-02-20T19:32:57.824Z,68.37
2018-02-20T19:35:25.913Z,65.10
2018-02-20T19:37:54.084Z,72.80
2018-02-20T19:40:22.051Z,64.37
2018-02-20T19:42:49.930Z,69.20
2018-02-20T19:45:18.361Z,73.67
2018-02-20T19:47:46.890Z,75.00
2018-02-20T19:50:15.293Z,74.40
2018-02-20T19:52:43.850Z,77.00
2018-02-20T19:55:14.146Z,73.30
2018-02-20T19:57:42.237Z,78.93
2018-02-20T20:00:10.314Z,83.87
2018-02-20T20:02:38.506Z,73.73
2018-02-20T20:05:07.950Z,80.93
2018-02-20T20:07:37.386Z,83.23
2018-02-20T20:10:06.248Z,76.83
2018-02-20T20:12:39.658Z,83.27
2018-02-20T20:15:07.999Z,81.40
2018-02-20T20:17:37.749Z,77.20
2018-02-20T20:20:05.651Z,91.33
2018-02-20T20:22:34.565Z,85.70
2018-02-20T20:25:02.840Z,74.07
2018-02-20T20:27:31.593Z,80.37
2018-02-20T20:30:00.827Z,80.90
2018-02-20T20:32:29.830Z,82.43
2018-02-20T20:34:58.617Z,86.50
2018-02-20T20:37:27.559Z,87.67
2018-02-20T20:39:55.671Z,94.03
2018-02-20T20:42:24.722Z,91.20
2018-02-20T20:44:54.164Z,99.07
2018-02-20T20:47:23.233Z,94.30
2018-02-20T20:49:51.288Z,81.07
2018-02-20T20:52:21.213Z,91.43
2018-02-20T20:54:49.383Z,97.13
2018-02-20T20:57:17.652Z,95.43
2018-02-20T20:59:46.114Z,102.53
2018-02-20T21:02:15.636Z,97.07
2018-02-20T21:04:50.409Z,105.47
2018-02-20T21:07:18.956Z,94.23
2018-02-20T21:09:48.412Z,92.00
2018-02-20T21:12:16.672Z,80.50
2018-02-20T21:14:45.625Z,95.03
2018-02-20T21:17:13.600Z,101.43
2018-02-20T21:19:42.686Z,104.80
2018-02-20T21:22:13.297Z,105.00
2018-02-20T21:24:42.327Z,95.50
2018-02-20T21:27:10.231Z,90.53
2018-02-20T21:29:39.606Z,101.23
2018-02-20T21:32:07.381Z,99.40
2018-02-20T21:34:36.241Z,95.40
2018-02-20T21:37:04.301Z,97.17
2018-02-20T21:39:32.289Z,97.27
2018-02-20T21:42:00.446Z,112.23
2018-02-20T21:44:28.358Z,97.13
2018-02-20T21:46:58.249Z,102.40
2018-02-20T21:49:26.016Z,105.40
2018-02-20T21:51:53.885Z,103.40
2018-02-20T21:54:21.948Z,112.67
2018-02-20T21:56:50.028Z,101.90
2018-02-20T21:59:18.772Z,99.30
2018-02-20T22:01:46.650Z,95.00
2018-02-20T22:04:14.518Z,101.50
2018-02-20T22:06:43.240Z,102.50
2018-02-20T22:09:12.060Z,88.23
2018-02-20T22:11:39.856Z,109.60
2018-02-20T22:14:07.845Z,110.47
2018-02-20T22:16:36.853Z,94.60
2018-02-20T22:19:05.296Z,104.07
2018-02-20T22:21:33.164Z,102.13
2018-02-20T22:24:01.374Z,95.90
2018-02-20T22:26:29.315Z,98.27
2018-02-20T22:28:57.193Z,94.00
2018-02-20T22:31:25.037Z,98.70
2018-02-20T22:33:52.808Z,95.17
2018-02-20T22:36:20.701Z,92.03
2018-02-20T22:38:50.069Z,97.37
2018-02-20T22:41:18.471Z,99.60
2018-02-20T22:43:47.186Z,105.50
2018-02-20T22:46:15.927Z,107.47
2018-02-20T22:48:43.978Z,99.10
2018-02-20T22:51:11.889Z,114.67
2018-02-20T22:53:39.991Z,103.20
2018-02-20T22:56:08.544Z,101.47
2018-02-20T22:58:37.915Z,99.97
2018-02-20T23:01:05.912Z,116.70
2018-02-20T23:03:33.771Z,101.03
2018-02-20T23:06:01.955Z,117.27
2018-02-20T23:08:30.197Z,107.20
2018-02-20T23:10:58.048Z,108.43
2018-02-20T23:13:26.007Z,111.47
2018-02-20T23:15:53.823Z,102.77
2018-02-20T23:18:21.703Z,111.23
2018-02-20T23:20:49.554Z,112.53
2018-02-20T23:23:17.352Z,116.20
2018-02-20T23:25:45.864Z,112.53
2018-02-20T23:28:13.893Z,122.70
2018-02-20T23:30:42.447Z,118.23
2018-02-20T23:33:10.399Z,118.43
2018-02-20T23:35:38.142Z,126.43
2018-02-20T23:38:06.275Z,122.63
2018-02-20T23:40:34.122Z,113.33
2018-02-20T23:43:02.039Z,120.40
2018-02-20T23:45:30.474Z,108.47
2018-02-20T23:47:58.214Z,117.33
2018-02-20T23:50:26.930Z,115.03
2018-02-20T23:52:54.867Z,110.73
2018-02-20T23:55:22.735Z,118.33
2018-02-20T23:57:50.556Z,108.60
